sensor_id;sensor_type;location;lat;lon;timestamp;pressure;altitude;pressure_sealevel;temperature;humidity
13836;BME280;6988;52.614;13.500;2023-02-16T00:04:36;54976.16;;;-143.77;81.29
13836;BME280;6988;52.614;13.500;2023-02-16T00:09:28;55000.78;;;-143.77;81.87
13836;BME280;6988;52.614;13.500;2023-02-16T00:14:22;54963.84;;;-143.77;81.58
13836;BME280;6988;52.614;13.500;2023-02-16T00:19:19;55006.94;;;-143.77;81.92
13836;BME280;6988;52.614;13.500;2023-02-16T00:24:12;54978.19;;;-143.77;81.14
13836;BME280;6988;52.614;13.500;2023-02-16T00:29:04;55002.81;;;-143.77;81.81
13836;BME280;6988;52.614;13.500;2023-02-16T00:33:58;54970.00;;;-143.77;81.53
13836;BME280;6988;52.614;13.500;2023-02-16T00:38:51;54976.16;;;-143.77;81.68
13836;BME280;6988;52.614;13.500;2023-02-16T00:43:42;54974.09;;;-143.77;81.40
13836;BME280;6988;52.614;13.500;2023-02-16T00:48:34;54976.16;;;-143.77;81.70
13836;BME280;6988;52.614;13.500;2023-02-16T00:53:27;55017.19;;;-143.77;81.22
13836;BME280;6988;52.614;13.500;2023-02-16T00:58:24;54996.66;;;-143.77;81.55
13836;BME280;6988;52.614;13.500;2023-02-16T01:03:23;55011.03;;;-143.77;81.88
13836;BME280;6988;52.614;13.500;2023-02-16T01:08:16;54967.94;;;-143.77;81.85
13836;BME280;6988;52.614;13.500;2023-02-16T01:13:37;54990.50;;;-143.77;81.55
13836;BME280;6988;52.614;13.500;2023-02-16T01:18:32;55021.28;;;-143.77;82.09
13836;BME280;6988;52.614;13.500;2023-02-16T01:23:24;55025.41;;;-143.77;81.70
13836;BME280;6988;52.614;13.500;2023-02-16T01:28:20;54976.16;;;-143.77;81.65
13836;BME280;6988;52.614;13.500;2023-02-16T01:33:13;55041.81;;;-143.77;82.10
13836;BME280;6988;52.614;13.500;2023-02-16T01:38:13;55000.78;;;-143.77;81.90
13836;BME280;6988;52.614;13.500;2023-02-16T01:43:19;54994.63;;;-143.77;81.92
13836;BME280;6988;52.614;13.500;2023-02-16T01:48:21;55054.13;;;-143.77;81.65
13836;BME280;6988;52.614;13.500;2023-02-16T01:53:21;54980.25;;;-143.77;82.21
13836;BME280;6988;52.614;13.500;2023-02-16T01:58:28;54994.63;;;-143.77;81.79
13836;BME280;6988;52.614;13.500;2023-02-16T02:03:29;55011.03;;;-143.77;82.27
13836;BME280;6988;52.614;13.500;2023-02-16T02:08:43;54984.34;;;-143.77;81.81
13836;BME280;6988;52.614;13.500;2023-02-16T02:13:44;55011.03;;;-143.77;81.89
13836;BME280;6988;52.614;13.500;2023-02-16T02:18:40;54996.66;;;-143.77;82.10
13836;BME280;6988;52.614;13.500;2023-02-16T02:23:51;55021.28;;;-143.77;82.14
13836;BME280;6988;52.614;13.500;2023-02-16T02:29:00;55043.88;;;-143.77;82.23
13836;BME280;6988;52.614;13.500;2023-02-16T02:34:11;55021.28;;;-143.77;82.14
13836;BME280;6988;52.614;13.500;2023-02-16T02:39:25;55000.78;;;-143.77;82.67
13836;BME280;6988;52.614;13.500;2023-02-16T02:44:26;54992.56;;;-143.77;82.47
13836;BME280;6988;52.614;13.500;2023-02-16T02:49:20;54992.56;;;-143.77;82.58
13836;BME280;6988;52.614;13.500;2023-02-16T02:54:16;55017.19;;;-143.77;82.40
13836;BME280;6988;52.614;13.500;2023-02-16T02:59:33;54980.25;;;-143.77;82.14
13836;BME280;6988;52.614;13.500;2023-02-16T03:04:46;54996.66;;;-143.77;82.05
13836;BME280;6988;52.614;13.500;2023-02-16T03:09:41;55045.91;;;-143.77;82.62
13836;BME280;6988;52.614;13.500;2023-02-16T03:14:40;55013.09;;;-143.77;82.41
13836;BME280;6988;52.614;13.500;2023-02-16T03:19:33;54982.31;;;-143.77;82.50
13836;BME280;6988;52.614;13.500;2023-02-16T03:24:44;55025.41;;;-143.77;82.54
13836;BME280;6988;52.614;13.500;2023-02-16T03:29:58;55008.97;;;-143.77;82.57
13836;BME280;6988;52.614;13.500;2023-02-16T03:34:51;55021.28;;;-143.77;83.13
13836;BME280;6988;52.614;13.500;2023-02-16T03:39:43;55027.44;;;-143.77;83.61
13836;BME280;6988;52.614;13.500;2023-02-16T03:44:52;55015.13;;;-143.77;83.70
13836;BME280;6988;52.614;13.500;2023-02-16T03:49:46;54961.78;;;-143.77;83.68
13836;BME280;6988;52.614;13.500;2023-02-16T03:54:38;55011.03;;;-143.77;84.43
13836;BME280;6988;52.614;13.500;2023-02-16T03:59:30;55000.78;;;-143.77;84.46
13836;BME280;6988;52.614;13.500;2023-02-16T04:04:22;54996.66;;;-143.77;84.87
13836;BME280;6988;52.614;13.500;2023-02-16T04:09:15;55023.34;;;-143.77;84.74
13836;BME280;6988;52.614;13.500;2023-02-16T04:14:07;55045.91;;;-143.77;84.99
13836;BME280;6988;52.614;13.500;2023-02-16T04:18:59;55033.59;;;-143.77;85.63
13836;BME280;6988;52.614;13.500;2023-02-16T04:23:51;55017.19;;;-143.77;85.61
13836;BME280;6988;52.614;13.500;2023-02-16T04:28:44;55029.50;;;-143.77;85.74
13836;BME280;6988;52.614;13.500;2023-02-16T04:33:36;54976.16;;;-143.77;85.88
13836;BME280;6988;52.614;13.500;2023-02-16T04:38:28;55011.03;;;-143.77;85.36
13836;BME280;6988;52.614;13.500;2023-02-16T04:43:20;55029.50;;;-143.77;85.05
13836;BME280;6988;52.614;13.500;2023-02-16T04:48:13;55004.88;;;-143.77;85.32
13836;BME280;6988;52.614;13.500;2023-02-16T04:53:05;55011.03;;;-143.77;84.74
13836;BME280;6988;52.614;13.500;2023-02-16T04:57:57;55008.97;;;-143.77;84.70
13836;BME280;6988;52.614;13.500;2023-02-16T05:02:49;55004.88;;;-143.77;84.66
13836;BME280;6988;52.614;13.500;2023-02-16T05:07:42;55000.78;;;-143.77;84.42
13836;BME280;6988;52.614;13.500;2023-02-16T05:12:35;55029.50;;;-143.77;84.46
13836;BME280;6988;52.614;13.500;2023-02-16T05:17:44;54998.72;;;-143.77;84.89
13836;BME280;6988;52.614;13.500;2023-02-16T05:22:36;55006.94;;;-143.77;84.53
13836;BME280;6988;52.614;13.500;2023-02-16T05:27:30;55058.25;;;-143.77;84.30
13836;BME280;6988;52.614;13.500;2023-02-16T05:32:23;55019.25;;;-143.77;84.48
13836;BME280;6988;52.614;13.500;2023-02-16T05:37:17;54998.72;;;-143.77;85.01
13836;BME280;6988;52.614;13.500;2023-02-16T05:42:09;55008.97;;;-143.77;84.45
13836;BME280;6988;52.614;13.500;2023-02-16T05:47:03;54988.47;;;-143.77;84.46
13836;BME280;6988;52.614;13.500;2023-02-16T05:51:55;55008.97;;;-143.77;85.12
13836;BME280;6988;52.614;13.500;2023-02-16T05:56:51;55000.78;;;-143.77;84.94
13836;BME280;6988;52.614;13.500;2023-02-16T06:01:44;55037.72;;;-143.77;85.02
13836;BME280;6988;52.614;13.500;2023-02-16T06:06:38;54996.66;;;-143.77;85.10
13836;BME280;6988;52.614;13.500;2023-02-16T06:11:30;55006.94;;;-143.77;85.05
13836;BME280;6988;52.614;13.500;2023-02-16T06:16:33;54992.56;;;-143.77;84.88
13836;BME280;6988;52.614;13.500;2023-02-16T06:21:25;55000.78;;;-143.77;84.41
13836;BME280;6988;52.614;13.500;2023-02-16T06:26:19;54998.72;;;-143.77;84.47
13836;BME280;6988;52.614;13.500;2023-02-16T06:31:11;54998.72;;;-143.77;84.52
13836;BME280;6988;52.614;13.500;2023-02-16T06:36:05;55017.19;;;-143.77;84.63
13836;BME280;6988;52.614;13.500;2023-02-16T06:40:57;54998.72;;;-143.77;84.43
13836;BME280;6988;52.614;13.500;2023-02-16T06:45:50;55015.13;;;-143.77;84.31
13836;BME280;6988;52.614;13.500;2023-02-16T06:50:42;55019.25;;;-143.77;84.48
13836;BME280;6988;52.614;13.500;2023-02-16T06:55:34;55004.88;;;-143.77;84.55
13836;BME280;6988;52.614;13.500;2023-02-16T07:00:26;55025.41;;;-143.77;84.09
13836;BME280;6988;52.614;13.500;2023-02-16T07:05:20;55041.81;;;-143.77;84.15
13836;BME280;6988;52.614;13.500;2023-02-16T07:10:13;55004.88;;;-143.77;84.42
13836;BME280;6988;52.614;13.500;2023-02-16T07:15:05;55004.88;;;-143.77;84.63
13836;BME280;6988;52.614;13.500;2023-02-16T07:19:57;54959.72;;;-143.77;85.71
13836;BME280;6988;52.614;13.500;2023-02-16T07:24:50;54928.94;;;-143.77;86.19
13836;BME280;6988;52.614;13.500;2023-02-16T07:29:45;54941.25;;;-143.77;86.74
13836;BME280;6988;52.614;13.500;2023-02-16T07:34:38;54935.09;;;-143.77;87.33
13836;BME280;6988;52.614;13.500;2023-02-16T07:39:30;54935.09;;;-143.77;87.66
13836;BME280;6988;52.614;13.500;2023-02-16T07:44:23;54922.78;;;-143.77;87.84
13836;BME280;6988;52.614;13.500;2023-02-16T07:49:15;54906.38;;;-143.77;87.38
13836;BME280;6988;52.614;13.500;2023-02-16T07:54:07;54879.69;;;-143.77;87.57
13836;BME280;6988;52.614;13.500;2023-02-16T07:59:01;54881.75;;;-143.77;88.00
13836;BME280;6988;52.614;13.500;2023-02-16T08:03:56;54877.66;;;-143.77;87.90
13836;BME280;6988;52.614;13.500;2023-02-16T08:08:48;54836.59;;;-143.77;87.12
13836;BME280;6988;52.614;13.500;2023-02-16T08:13:40;54832.50;;;-143.77;87.22
13836;BME280;6988;52.614;13.500;2023-02-16T08:18:32;54807.88;;;-143.77;86.63
13836;BME280;6988;52.614;13.500;2023-02-16T08:23:26;54781.19;;;-143.77;84.48
13836;BME280;6988;52.614;13.500;2023-02-16T08:28:19;54783.25;;;-143.77;81.91
13836;BME280;6988;52.614;13.500;2023-02-16T08:33:13;54791.47;;;-143.77;80.51
13836;BME280;6988;52.614;13.500;2023-02-16T08:38:05;54750.41;;;-143.77;78.18
13836;BME280;6988;52.614;13.500;2023-02-16T08:42:59;54736.06;;;-143.77;75.50
13836;BME280;6988;52.614;13.500;2023-02-16T08:47:52;54695.00;;;-143.77;73.36
13836;BME280;6988;52.614;13.500;2023-02-16T08:52:43;54699.13;;;-143.77;72.85
13836;BME280;6988;52.614;13.500;2023-02-16T08:57:36;54705.28;;;-143.77;71.71
13836;BME280;6988;52.614;13.500;2023-02-16T09:02:30;54697.06;;;-143.77;69.74
13836;BME280;6988;52.614;13.500;2023-02-16T09:07:21;54660.13;;;-143.77;68.76
13836;BME280;6988;52.614;13.500;2023-02-16T09:12:13;54633.44;;;-143.77;66.77
13836;BME280;6988;52.614;13.500;2023-02-16T09:17:05;54635.50;;;-143.77;65.70
13836;BME280;6988;52.614;13.500;2023-02-16T09:21:58;54697.06;;;-143.77;63.76
13836;BME280;6988;52.614;13.500;2023-02-16T09:26:50;54656.03;;;-143.77;64.18
13836;BME280;6988;52.614;13.500;2023-02-16T09:31:42;54651.91;;;-143.77;63.47
13836;BME280;6988;52.614;13.500;2023-02-16T09:36:37;54594.47;;;-143.77;63.16
13836;BME280;6988;52.614;13.500;2023-02-16T09:41:56;54631.41;;;-143.77;63.30
13836;BME280;6988;52.614;13.500;2023-02-16T09:46:50;54584.19;;;-143.77;63.07
13836;BME280;6988;52.614;13.500;2023-02-16T09:51:43;54633.44;;;-143.77;63.16
13836;BME280;6988;52.614;13.500;2023-02-16T09:56:41;54614.97;;;-143.77;62.87
13836;BME280;6988;52.614;13.500;2023-02-16T10:01:42;54625.25;;;-143.77;63.09
13836;BME280;6988;52.614;13.500;2023-02-16T10:06:54;54602.66;;;-143.77;63.05
13836;BME280;6988;52.614;13.500;2023-02-16T10:11:55;54610.88;;;-143.77;62.30
13836;BME280;6988;52.614;13.500;2023-02-16T10:16:57;54643.72;;;-143.77;61.89
13836;BME280;6988;52.614;13.500;2023-02-16T10:21:57;54627.28;;;-143.77;62.13
13836;BME280;6988;52.614;13.500;2023-02-16T10:27:01;54623.19;;;-143.77;61.98
13836;BME280;6988;52.614;13.500;2023-02-16T10:32:05;54635.50;;;-143.77;62.28
13836;BME280;6988;52.614;13.500;2023-02-16T10:37:20;54621.13;;;-143.77;62.77
13836;BME280;6988;52.614;13.500;2023-02-16T10:42:24;54658.06;;;-143.77;62.96
13836;BME280;6988;52.614;13.500;2023-02-16T10:47:31;54619.09;;;-143.77;61.94
13836;BME280;6988;52.614;13.500;2023-02-16T10:52:24;54590.34;;;-143.77;61.67
13836;BME280;6988;52.614;13.500;2023-02-16T10:57:25;54565.72;;;-143.77;61.87
13836;BME280;6988;52.614;13.500;2023-02-16T11:02:23;54614.97;;;-143.77;61.01
13836;BME280;6988;52.614;13.500;2023-02-16T11:07:17;54578.03;;;-143.77;59.85
13836;BME280;6988;52.614;13.500;2023-02-16T11:12:26;54578.03;;;-143.77;60.01
13836;BME280;6988;52.614;13.500;2023-02-16T11:17:21;54573.94;;;-143.77;59.27
13836;BME280;6988;52.614;13.500;2023-02-16T11:22:27;54561.63;;;-143.77;58.76
13836;BME280;6988;52.614;13.500;2023-02-16T11:27:23;54549.31;;;-143.77;58.31
13836;BME280;6988;52.614;13.500;2023-02-16T11:32:18;54561.63;;;-143.77;58.72
13836;BME280;6988;52.614;13.500;2023-02-16T11:37:21;54545.22;;;-143.77;57.54
13836;BME280;6988;52.614;13.500;2023-02-16T11:42:28;54555.47;;;-143.77;57.77
13836;BME280;6988;52.614;13.500;2023-02-16T11:47:25;54516.50;;;-143.77;56.45
13836;BME280;6988;52.614;13.500;2023-02-16T11:52:26;54539.06;;;-143.77;56.17
13836;BME280;6988;52.614;13.500;2023-02-16T11:57:25;54534.94;;;-143.77;56.40
13836;BME280;6988;52.614;13.500;2023-02-16T12:02:48;54495.97;;;-143.77;55.28
13836;BME280;6988;52.614;13.500;2023-02-16T12:08:19;54473.41;;;-143.77;54.60
13836;BME280;6988;52.614;13.500;2023-02-16T12:13:22;54475.44;;;-143.77;54.56
13836;BME280;6988;52.614;13.500;2023-02-16T12:18:29;54456.97;;;-143.77;53.07
13836;BME280;6988;52.614;13.500;2023-02-16T12:23:40;54446.72;;;-143.77;52.32
13836;BME280;6988;52.614;13.500;2023-02-16T12:28:41;54424.16;;;-143.77;53.14
13836;BME280;6988;52.614;13.500;2023-02-16T12:33:49;54446.72;;;-143.77;50.07
13836;BME280;6988;52.614;13.500;2023-02-16T12:38:56;54420.03;;;-143.77;50.16
13836;BME280;6988;52.614;13.500;2023-02-16T12:43:53;54422.09;;;-143.77;51.19
13836;BME280;6988;52.614;13.500;2023-02-16T12:48:55;54376.97;;;-143.77;50.96
13836;BME280;6988;52.614;13.500;2023-02-16T12:53:57;54344.13;;;-143.77;50.89
13836;BME280;6988;52.614;13.500;2023-02-16T12:59:02;54356.44;;;-143.77;48.16
13836;BME280;6988;52.614;13.500;2023-02-16T13:04:03;54325.66;;;-143.77;47.28
13836;BME280;6988;52.614;13.500;2023-02-16T13:09:09;54323.59;;;-143.77;48.69
13836;BME280;6988;52.614;13.500;2023-02-16T13:14:15;54366.69;;;-143.77;47.02
13836;BME280;6988;52.614;13.500;2023-02-16T13:19:12;54360.53;;;-143.77;47.23
13836;BME280;6988;52.614;13.500;2023-02-16T13:24:13;54335.91;;;-143.77;46.23
13836;BME280;6988;52.614;13.500;2023-02-16T13:29:49;54331.81;;;-143.77;48.99
13836;BME280;6988;52.614;13.500;2023-02-16T13:35:20;54397.47;;;-143.77;47.74
13836;BME280;6988;52.614;13.500;2023-02-16T13:40:33;54387.22;;;-143.77;47.59
13836;BME280;6988;52.614;13.500;2023-02-16T13:45:29;54381.06;;;-143.77;47.43
13836;BME280;6988;52.614;13.500;2023-02-16T13:50:31;54368.75;;;-143.77;48.03
13836;BME280;6988;52.614;13.500;2023-02-16T13:55:29;54364.66;;;-143.77;47.83
13836;BME280;6988;52.614;13.500;2023-02-16T14:00:28;54389.28;;;-143.77;47.70
13836;BME280;6988;52.614;13.500;2023-02-16T14:05:33;54428.25;;;-143.77;49.19
13836;BME280;6988;52.614;13.500;2023-02-16T14:11:05;54399.53;;;-143.77;49.87
13836;BME280;6988;52.614;13.500;2023-02-16T14:16:06;54438.50;;;-143.77;50.08
13836;BME280;6988;52.614;13.500;2023-02-16T14:21:01;54444.66;;;-143.77;50.88
13836;BME280;6988;52.614;13.500;2023-02-16T14:26:02;54415.94;;;-143.77;51.77
13836;BME280;6988;52.614;13.500;2023-02-16T14:30:56;54411.84;;;-143.77;50.66
13836;BME280;6988;52.614;13.500;2023-02-16T14:36:13;54459.03;;;-143.77;51.36
13836;BME280;6988;52.614;13.500;2023-02-16T14:41:12;54483.66;;;-143.77;52.11
13836;BME280;6988;52.614;13.500;2023-02-16T14:46:32;54454.94;;;-143.77;53.07
13836;BME280;6988;52.614;13.500;2023-02-16T14:51:54;54475.44;;;-143.77;53.51
13836;BME280;6988;52.614;13.500;2023-02-16T14:56:53;54456.97;;;-143.77;53.45
13836;BME280;6988;52.614;13.500;2023-02-16T15:01:49;54483.66;;;-143.77;53.78
13836;BME280;6988;52.614;13.500;2023-02-16T15:06:45;54467.25;;;-143.77;54.25
13836;BME280;6988;52.614;13.500;2023-02-16T15:11:47;54475.44;;;-143.77;54.58
13836;BME280;6988;52.614;13.500;2023-02-16T15:16:57;54465.19;;;-143.77;54.60
13836;BME280;6988;52.614;13.500;2023-02-16T15:22:18;54483.66;;;-143.77;55.50
13836;BME280;6988;52.614;13.500;2023-02-16T15:27:21;54516.50;;;-143.77;55.69
13836;BME280;6988;52.614;13.500;2023-02-16T15:32:17;54510.34;;;-143.77;56.27
13836;BME280;6988;52.614;13.500;2023-02-16T15:37:23;54479.56;;;-143.77;55.95
13836;BME280;6988;52.614;13.500;2023-02-16T15:42:22;54473.41;;;-143.77;56.63
13836;BME280;6988;52.614;13.500;2023-02-16T15:47:23;54508.28;;;-143.77;56.83
13836;BME280;6988;52.614;13.500;2023-02-16T15:52:20;54500.06;;;-143.77;57.24
13836;BME280;6988;52.614;13.500;2023-02-16T15:57:24;54512.38;;;-143.77;57.32
13836;BME280;6988;52.614;13.500;2023-02-16T16:02:26;54510.34;;;-143.77;57.45
13836;BME280;6988;52.614;13.500;2023-02-16T16:07:28;54512.38;;;-143.77;57.25
13836;BME280;6988;52.614;13.500;2023-02-16T16:12:23;54528.78;;;-143.77;57.16
13836;BME280;6988;52.614;13.500;2023-02-16T16:17:20;54522.63;;;-143.77;57.41
13836;BME280;6988;52.614;13.500;2023-02-16T16:22:33;54508.28;;;-143.77;57.62
13836;BME280;6988;52.614;13.500;2023-02-16T16:27:30;54563.69;;;-143.77;58.17
13836;BME280;6988;52.614;13.500;2023-02-16T16:32:24;54582.16;;;-143.77;58.11
13836;BME280;6988;52.614;13.500;2023-02-16T16:37:25;54551.38;;;-143.77;58.33
13836;BME280;6988;52.614;13.500;2023-02-16T16:42:26;54547.25;;;-143.77;58.42
13836;BME280;6988;52.614;13.500;2023-02-16T16:47:26;54567.78;;;-143.77;58.55
13836;BME280;6988;52.614;13.500;2023-02-16T16:52:36;54573.94;;;-143.77;59.09
13836;BME280;6988;52.614;13.500;2023-02-16T16:57:29;54567.78;;;-143.77;59.47
13836;BME280;6988;52.614;13.500;2023-02-16T17:02:21;54561.63;;;-143.77;59.82
13836;BME280;6988;52.614;13.500;2023-02-16T17:07:13;54559.56;;;-143.77;59.94
13836;BME280;6988;52.614;13.500;2023-02-16T17:12:05;54586.25;;;-143.77;60.17
13836;BME280;6988;52.614;13.500;2023-02-16T17:16:58;54573.94;;;-143.77;60.59
13836;BME280;6988;52.614;13.500;2023-02-16T17:21:50;54563.69;;;-143.77;60.79
13836;BME280;6988;52.614;13.500;2023-02-16T17:26:42;54588.31;;;-143.77;60.70
13836;BME280;6988;52.614;13.500;2023-02-16T17:31:34;54588.31;;;-143.77;61.06
13836;BME280;6988;52.614;13.500;2023-02-16T17:36:27;54573.94;;;-143.77;60.85
13836;BME280;6988;52.614;13.500;2023-02-16T17:41:23;54567.78;;;-143.77;61.19
13836;BME280;6988;52.614;13.500;2023-02-16T17:46:18;54602.66;;;-143.77;61.52
13836;BME280;6988;52.614;13.500;2023-02-16T17:51:13;54584.19;;;-143.77;61.42
13836;BME280;6988;52.614;13.500;2023-02-16T17:56:10;54582.16;;;-143.77;61.17
13836;BME280;6988;52.614;13.500;2023-02-16T18:01:03;54578.03;;;-143.77;61.18
13836;BME280;6988;52.614;13.500;2023-02-16T18:05:55;54582.16;;;-143.77;61.74
13836;BME280;6988;52.614;13.500;2023-02-16T18:10:49;54582.16;;;-143.77;61.58
13836;BME280;6988;52.614;13.500;2023-02-16T18:15:47;54563.69;;;-143.77;61.49
13836;BME280;6988;52.614;13.500;2023-02-16T18:20:40;54563.69;;;-143.77;61.67
13836;BME280;6988;52.614;13.500;2023-02-16T18:25:32;54619.09;;;-143.77;61.84
13836;BME280;6988;52.614;13.500;2023-02-16T18:30:24;54580.09;;;-143.77;61.72
13836;BME280;6988;52.614;13.500;2023-02-16T18:35:18;54623.19;;;-143.77;61.93
13836;BME280;6988;52.614;13.500;2023-02-16T18:40:15;54604.72;;;-143.77;62.22
13836;BME280;6988;52.614;13.500;2023-02-16T18:45:09;54580.09;;;-143.77;62.62
13836;BME280;6988;52.614;13.500;2023-02-16T18:50:02;54631.41;;;-143.77;62.85
13836;BME280;6988;52.614;13.500;2023-02-16T18:54:55;54621.13;;;-143.77;62.93
13836;BME280;6988;52.614;13.500;2023-02-16T18:59:47;54584.19;;;-143.77;63.02
13836;BME280;6988;52.614;13.500;2023-02-16T19:04:39;54592.41;;;-143.77;62.89
13836;BME280;6988;52.614;13.500;2023-02-16T19:09:31;54576.00;;;-143.77;62.96
13836;BME280;6988;52.614;13.500;2023-02-16T19:14:24;54588.31;;;-143.77;62.75
13836;BME280;6988;52.614;13.500;2023-02-16T19:19:16;54600.63;;;-143.77;62.81
13836;BME280;6988;52.614;13.500;2023-02-16T19:24:10;54602.66;;;-143.77;62.97
13836;BME280;6988;52.614;13.500;2023-02-16T19:29:02;54602.66;;;-143.77;62.99
13836;BME280;6988;52.614;13.500;2023-02-16T19:33:57;54598.56;;;-143.77;62.87
13836;BME280;6988;52.614;13.500;2023-02-16T19:38:49;54592.41;;;-143.77;63.16
13836;BME280;6988;52.614;13.500;2023-02-16T19:43:43;54565.72;;;-143.77;63.05
13836;BME280;6988;52.614;13.500;2023-02-16T19:48:35;54569.84;;;-143.77;62.51
13836;BME280;6988;52.614;13.500;2023-02-16T19:53:30;54631.41;;;-143.77;62.68
13836;BME280;6988;52.614;13.500;2023-02-16T19:58:23;54604.72;;;-143.77;62.73
13836;BME280;6988;52.614;13.500;2023-02-16T20:03:16;54590.34;;;-143.77;62.77
13836;BME280;6988;52.614;13.500;2023-02-16T20:08:08;54573.94;;;-143.77;62.99
13836;BME280;6988;52.614;13.500;2023-02-16T20:13:01;54580.09;;;-143.77;62.97
13836;BME280;6988;52.614;13.500;2023-02-16T20:17:53;54594.47;;;-143.77;62.91
13836;BME280;6988;52.614;13.500;2023-02-16T20:22:45;54584.19;;;-143.77;62.90
13836;BME280;6988;52.614;13.500;2023-02-16T20:27:37;54584.19;;;-143.77;62.97
13836;BME280;6988;52.614;13.500;2023-02-16T20:32:31;54592.41;;;-143.77;62.86
13836;BME280;6988;52.614;13.500;2023-02-16T20:37:24;54602.66;;;-143.77;62.98
13836;BME280;6988;52.614;13.500;2023-02-16T20:42:15;54584.19;;;-143.77;63.37
13836;BME280;6988;52.614;13.500;2023-02-16T20:47:07;54578.03;;;-143.77;64.31
13836;BME280;6988;52.614;13.500;2023-02-16T20:52:02;54606.78;;;-143.77;65.65
13836;BME280;6988;52.614;13.500;2023-02-16T20:56:54;54637.56;;;-143.77;66.77
13836;BME280;6988;52.614;13.500;2023-02-16T21:01:47;54610.88;;;-143.77;67.54
13836;BME280;6988;52.614;13.500;2023-02-16T21:06:39;54623.19;;;-143.77;67.65
13836;BME280;6988;52.614;13.500;2023-02-16T21:11:33;54623.19;;;-143.77;67.85
13836;BME280;6988;52.614;13.500;2023-02-16T21:16:25;54635.50;;;-143.77;67.67
13836;BME280;6988;52.614;13.500;2023-02-16T21:21:17;54604.72;;;-143.77;68.43
13836;BME280;6988;52.614;13.500;2023-02-16T21:26:10;54629.34;;;-143.77;68.74
13836;BME280;6988;52.614;13.500;2023-02-16T21:31:06;54598.56;;;-143.77;69.09
13836;BME280;6988;52.614;13.500;2023-02-16T21:36:04;54660.13;;;-143.77;68.91
13836;BME280;6988;52.614;13.500;2023-02-16T21:41:01;54623.19;;;-143.77;68.94
13836;BME280;6988;52.614;13.500;2023-02-16T21:46:12;54631.41;;;-143.77;68.88
13836;BME280;6988;52.614;13.500;2023-02-16T21:51:04;54656.03;;;-143.77;68.63
13836;BME280;6988;52.614;13.500;2023-02-16T21:55:56;54637.56;;;-143.77;68.33
13836;BME280;6988;52.614;13.500;2023-02-16T22:01:05;54604.72;;;-143.77;68.13
13836;BME280;6988;52.614;13.500;2023-02-16T22:06:01;54627.28;;;-143.77;68.44
13836;BME280;6988;52.614;13.500;2023-02-16T22:10:53;54608.81;;;-143.77;67.92
13836;BME280;6988;52.614;13.500;2023-02-16T22:15:45;54594.47;;;-143.77;67.91
13836;BME280;6988;52.614;13.500;2023-02-16T22:20:38;54641.66;;;-143.77;67.77
13836;BME280;6988;52.614;13.500;2023-02-16T22:25:31;54651.91;;;-143.77;67.98
13836;BME280;6988;52.614;13.500;2023-02-16T22:30:23;54649.88;;;-143.77;68.22
13836;BME280;6988;52.614;13.500;2023-02-16T22:35:15;54625.25;;;-143.77;68.00
13836;BME280;6988;52.614;13.500;2023-02-16T22:40:08;54619.09;;;-143.77;68.07
13836;BME280;6988;52.614;13.500;2023-02-16T22:45:01;54633.44;;;-143.77;68.06
13836;BME280;6988;52.614;13.500;2023-02-16T23:04:38;54656.03;;;-143.77;69.92
13836;BME280;6988;52.614;13.500;2023-02-16T23:09:30;54639.59;;;-143.77;70.13
13836;BME280;6988;52.614;13.500;2023-02-16T23:14:22;54610.88;;;-143.77;70.19
13836;BME280;6988;52.614;13.500;2023-02-16T23:19:17;54649.88;;;-143.77;70.31
13836;BME280;6988;52.614;13.500;2023-02-16T23:24:14;54637.56;;;-143.77;70.36
13836;BME280;6988;52.614;13.500;2023-02-16T23:29:06;54635.50;;;-143.77;70.69
13836;BME280;6988;52.614;13.500;2023-02-16T23:33:59;54635.50;;;-143.77;70.75
13836;BME280;6988;52.614;13.500;2023-02-16T23:38:51;54629.34;;;-143.77;70.66
13836;BME280;6988;52.614;13.500;2023-02-16T23:43:44;54641.66;;;-143.77;70.92
13836;BME280;6988;52.614;13.500;2023-02-16T23:48:36;54649.88;;;-143.77;71.04
13836;BME280;6988;52.614;13.500;2023-02-16T23:53:29;54643.72;;;-143.77;71.14
13836;BME280;6988;52.614;13.500;2023-02-16T23:58:21;54664.22;;;-143.77;71.55
